Grand Marais, Michigan
Current Conditions -  °F | °C
As of 7:54 AM on Friday 24 Oct 2014 (Local Time) from KERY Reporting Station
Haze Haze  
Wind Chill: 47°   Ceiling: 500
Heat Index: 47°   Visibility: 3mi
Dew Point: 47°   Wind: 0mph
Humidity: 99%   Direction: NA
Pressure: 29.98"   Gusts: NA
Location:  46.67°N, 85.99°W
Report Text: KERY 241154Z AUTO 00000KT 3SM BR OVC005 08/08 A2998 RMK AO2 T00830081
Loading
Personal Weather Stations






























Interactive Weather Map
Tropical Storm Tracking
New forecast layout! Learn more

10-Day Weather Forecast

Advertisements
Track Severe Weather on mobile